createdAt,value
2018-05-08T00:01:57.681Z,16.00
2018-05-08T00:04:23.894Z,16.00
2018-05-08T00:06:50.121Z,16.00
2018-05-08T00:09:16.321Z,15.90
2018-05-08T00:11:42.532Z,15.90
2018-05-08T00:14:10.509Z,15.80
2018-05-08T00:16:37.469Z,15.80
2018-05-08T00:19:04.409Z,15.70
2018-05-08T00:21:30.600Z,15.70
2018-05-08T00:23:56.784Z,15.70
2018-05-08T00:26:23.737Z,15.60
2018-05-08T00:28:50.042Z,15.50
2018-05-08T00:31:16.475Z,15.60
2018-05-08T00:33:44.204Z,15.40
2018-05-08T00:36:10.400Z,15.40
2018-05-08T00:38:37.617Z,15.40
2018-05-08T00:41:03.822Z,15.40
2018-05-08T00:43:30.006Z,15.40
2018-05-08T00:45:56.223Z,15.30
2018-05-08T00:48:22.411Z,15.30
2018-05-08T00:50:49.354Z,15.20
2018-05-08T00:53:15.617Z,15.10
2018-05-08T00:55:42.682Z,15.10
2018-05-08T00:58:09.789Z,15.10
2018-05-08T01:00:36.129Z,15.10
2018-05-08T01:03:02.360Z,15.00
2018-05-08T01:05:28.644Z,15.00
2018-05-08T01:07:54.831Z,14.90
2018-05-08T01:10:21.762Z,14.90
2018-05-08T01:12:47.954Z,14.80
2018-05-08T01:15:14.169Z,14.80
2018-05-08T01:17:41.113Z,14.70
2018-05-08T01:20:08.051Z,14.70
2018-05-08T01:22:34.309Z,14.60
2018-05-08T01:25:00.532Z,14.60
2018-05-08T01:27:26.763Z,14.60
2018-05-08T01:29:53.691Z,14.50
2018-05-08T01:32:19.898Z,14.40
2018-05-08T01:34:46.090Z,14.50
2018-05-08T01:37:12.346Z,14.40
2018-05-08T01:39:38.585Z,14.40
2018-05-08T01:42:04.821Z,14.40
2018-05-08T01:44:31.077Z,14.30
2018-05-08T01:46:57.274Z,14.30
2018-05-08T01:49:23.486Z,14.30
2018-05-08T01:51:50.480Z,14.20
2018-05-08T01:54:16.685Z,14.20
2018-05-08T01:56:43.592Z,14.10
2018-05-08T01:59:09.769Z,14.10
2018-05-08T02:01:36.710Z,14.10
2018-05-08T02:04:03.663Z,14.10
2018-05-08T02:06:29.857Z,14.00
2018-05-08T02:08:56.052Z,14.00
2018-05-08T02:11:22.268Z,14.00
2018-05-08T02:13:49.232Z,13.90
2018-05-08T02:16:15.463Z,13.90
2018-05-08T02:18:41.657Z,13.90
2018-05-08T02:21:07.844Z,13.90
2018-05-08T02:23:34.305Z,13.80
2018-05-08T02:26:00.634Z,13.80
2018-05-08T02:28:26.747Z,13.70
2018-05-08T02:30:52.915Z,13.70
2018-05-08T02:33:19.062Z,13.70
2018-05-08T02:35:45.245Z,13.70
2018-05-08T02:38:11.426Z,13.60
2018-05-08T02:40:37.616Z,13.60
2018-05-08T02:43:03.827Z,13.60
2018-05-08T02:45:30.830Z,13.50
2018-05-08T02:47:57.031Z,13.40
2018-05-08T02:50:23.257Z,13.50
2018-05-08T02:52:50.190Z,13.40
2018-05-08T02:55:17.120Z,13.40
2018-05-08T02:57:43.315Z,13.30
2018-05-08T03:00:09.511Z,13.30
2018-05-08T03:02:37.232Z,13.20
2018-05-08T03:05:03.459Z,13.20
2018-05-08T03:07:29.668Z,13.20
2018-05-08T03:09:56.593Z,13.20
2018-05-08T03:12:23.547Z,13.10
2018-05-08T03:14:49.735Z,13.10
2018-05-08T03:17:15.906Z,13.10
2018-05-08T03:19:42.836Z,13.00
2018-05-08T03:22:09.014Z,13.00
2018-05-08T03:24:36.188Z,13.00
2018-05-08T03:27:02.347Z,12.90
2018-05-08T03:29:28.541Z,13.00
2018-05-08T03:31:54.746Z,12.90
2018-05-08T03:34:21.512Z,12.90
2018-05-08T03:36:48.558Z,12.90
2018-05-08T03:39:14.793Z,12.90
2018-05-08T03:41:41.744Z,12.90
2018-05-08T03:44:08.705Z,12.80
2018-05-08T03:46:34.917Z,12.80
2018-05-08T03:49:01.141Z,12.80
2018-05-08T03:51:27.429Z,12.80
2018-05-08T03:53:53.612Z,12.80
2018-05-08T03:56:20.602Z,12.80
2018-05-08T03:58:46.872Z,12.70
2018-05-08T04:01:31.853Z,12.80
2018-05-08T04:04:16.675Z,12.80
2018-05-08T04:07:04.904Z,12.80
2018-05-08T04:09:31.096Z,12.70
2018-05-08T04:11:58.044Z,12.80
2018-05-08T04:14:24.301Z,12.70
2018-05-08T04:16:51.583Z,12.80
2018-05-08T04:19:17.767Z,12.70
2018-05-08T04:21:43.943Z,12.80
2018-05-08T04:24:10.129Z,12.80
2018-05-08T04:26:37.748Z,12.90
2018-05-08T04:29:04.826Z,12.90
2018-05-08T04:31:31.033Z,12.90
2018-05-08T04:33:57.255Z,12.90
2018-05-08T04:36:23.487Z,12.90
2018-05-08T04:38:49.880Z,13.00
2018-05-08T04:41:16.102Z,13.00
2018-05-08T04:43:42.278Z,13.00
2018-05-08T04:46:08.501Z,13.10
2018-05-08T04:48:36.230Z,13.10
2018-05-08T04:51:02.391Z,13.10
2018-05-08T04:53:28.596Z,13.20
2018-05-08T04:55:54.944Z,13.20
2018-05-08T04:58:21.262Z,13.30
2018-05-08T05:00:47.454Z,13.40
2018-05-08T05:03:13.656Z,13.40
2018-05-08T05:05:39.893Z,13.50
2018-05-08T05:08:08.764Z,13.60
2018-05-08T05:10:35.238Z,13.80
2018-05-08T05:13:01.424Z,14.00
2018-05-08T05:15:27.910Z,14.10
2018-05-08T05:17:54.314Z,14.30
2018-05-08T05:20:20.497Z,14.50
2018-05-08T05:22:46.656Z,14.80
2018-05-08T05:25:12.863Z,15.00
2018-05-08T05:27:39.065Z,15.30
2018-05-08T05:30:05.556Z,15.70
2018-05-08T05:32:31.755Z,16.00
2018-05-08T05:34:57.940Z,16.40
2018-05-08T05:37:24.156Z,16.70
2018-05-08T05:39:51.071Z,17.40
2018-05-08T05:42:17.284Z,17.30
2018-05-08T05:44:43.511Z,17.80
2018-05-08T05:47:09.729Z,18.10
2018-05-08T05:49:35.900Z,18.50
2018-05-08T05:52:02.240Z,18.90
2018-05-08T05:54:28.488Z,19.30
2018-05-08T05:56:54.722Z,19.70
2018-05-08T05:59:22.546Z,20.40
2018-05-08T06:01:50.122Z,20.40
2018-05-08T06:04:16.342Z,20.80
2018-05-08T06:06:42.573Z,21.10
2018-05-08T06:09:08.767Z,21.50
2018-05-08T06:11:35.003Z,21.80
2018-05-08T06:14:01.188Z,22.20
2018-05-08T06:16:27.383Z,22.60
2018-05-08T06:18:54.329Z,23.30
2018-05-08T06:21:20.537Z,23.20
2018-05-08T06:23:46.766Z,23.70
2018-05-08T06:26:13.768Z,24.40
2018-05-08T06:28:40.053Z,24.30
2018-05-08T06:31:06.343Z,24.80
2018-05-08T06:33:32.517Z,25.10
2018-05-08T06:35:58.738Z,25.40
2018-05-08T06:38:24.961Z,25.80
2018-05-08T06:40:51.132Z,26.10
2018-05-08T06:43:17.341Z,26.50
2018-05-08T06:45:43.531Z,26.80
2018-05-08T06:48:10.500Z,27.50
2018-05-08T06:50:36.769Z,27.40
2018-05-08T06:53:02.969Z,27.80
2018-05-08T06:55:29.147Z,28.20
2018-05-08T06:57:55.349Z,28.50
2018-05-08T07:00:21.577Z,28.90
2018-05-08T07:02:48.341Z,29.20
2018-05-08T07:05:14.544Z,29.50
2018-05-08T07:07:40.819Z,29.80
2018-05-08T07:10:07.059Z,30.00
2018-05-08T07:12:33.200Z,30.30
2018-05-08T07:14:59.423Z,30.50
2018-05-08T07:17:25.654Z,30.80
2018-05-08T07:19:51.817Z,31.00
2018-05-08T07:22:18.760Z,31.30
2018-05-08T07:24:45.747Z,31.50
2018-05-08T07:27:12.712Z,31.70
2018-05-08T07:29:38.930Z,31.60
2018-05-08T07:32:05.836Z,32.10
2018-05-08T07:34:32.113Z,32.00
2018-05-08T07:36:59.009Z,32.60
2018-05-08T07:39:25.175Z,32.50
2018-05-08T07:41:51.339Z,32.90
2018-05-08T07:44:17.509Z,33.20
2018-05-08T07:46:43.660Z,33.50
2018-05-08T07:49:09.813Z,33.80
2018-05-08T07:51:35.990Z,34.10
2018-05-08T07:54:02.214Z,34.40
2018-05-08T07:56:28.548Z,34.70
2018-05-08T07:58:54.719Z,35.10
2018-05-08T08:01:20.938Z,35.40
2018-05-08T08:03:47.100Z,35.60
2018-05-08T08:06:13.287Z,35.90
2018-05-08T08:08:39.475Z,36.10
2018-05-08T08:11:05.707Z,36.30
2018-05-08T08:13:31.888Z,36.50
2018-05-08T08:15:58.153Z,36.50
2018-05-08T08:18:24.336Z,36.70
2018-05-08T08:20:51.265Z,36.90
2018-05-08T08:23:17.437Z,36.90
2018-05-08T08:25:43.639Z,37.00
2018-05-08T08:28:10.608Z,37.20
2018-05-08T08:30:36.859Z,37.10
2018-05-08T08:33:03.167Z,37.30
2018-05-08T08:35:37.258Z,37.80
2018-05-08T08:38:04.130Z,38.10
2018-05-08T08:40:31.092Z,38.40
2018-05-08T08:42:57.321Z,38.30
2018-05-08T08:45:24.234Z,38.80
2018-05-08T08:47:50.484Z,38.80
2018-05-08T08:50:16.914Z,38.90
2018-05-08T08:52:43.110Z,39.00
2018-05-08T08:55:09.343Z,39.00
2018-05-08T08:57:35.562Z,39.10
2018-05-08T09:00:01.756Z,39.20
2018-05-08T09:02:27.928Z,39.20
2018-05-08T09:04:54.861Z,39.20
2018-05-08T09:07:21.807Z,39.20
2018-05-08T09:09:48.781Z,39.10
2018-05-08T09:12:15.015Z,39.00
2018-05-08T09:14:41.220Z,39.00
2018-05-08T09:17:07.414Z,38.90
2018-05-08T09:19:33.608Z,38.70
2018-05-08T09:22:00.212Z,38.70
2018-05-08T09:24:26.377Z,38.70
2018-05-08T09:26:52.561Z,38.70
2018-05-08T09:29:18.772Z,38.60
2018-05-08T09:31:45.002Z,38.60
2018-05-08T09:34:11.202Z,38.60
2018-05-08T09:36:38.156Z,38.60
2018-05-08T09:39:05.156Z,38.40
2018-05-08T09:41:31.371Z,38.40
2018-05-08T09:43:57.627Z,38.50
2018-05-08T09:46:23.812Z,38.40
2018-05-08T09:48:50.006Z,38.50
2018-05-08T09:51:16.151Z,38.60
2018-05-08T09:53:43.242Z,38.60
2018-05-08T09:56:10.233Z,38.40
2018-05-08T09:58:36.415Z,38.40
2018-05-08T10:01:02.685Z,38.30
2018-05-08T10:03:29.596Z,38.10
2018-05-08T10:05:56.543Z,37.90
2018-05-08T10:08:22.910Z,37.90
2018-05-08T10:10:49.149Z,37.70
2018-05-08T10:13:16.087Z,37.40
2018-05-08T10:15:42.247Z,37.30
2018-05-08T10:18:08.427Z,37.30
2018-05-08T10:20:34.740Z,37.30
2018-05-08T10:23:00.845Z,37.30
2018-05-08T10:25:27.049Z,37.30
2018-05-08T10:27:53.204Z,37.20
2018-05-08T10:30:20.106Z,37.10
2018-05-08T10:32:46.317Z,37.10
2018-05-08T10:35:12.485Z,37.20
2018-05-08T10:37:38.694Z,37.20
2018-05-08T10:40:05.732Z,37.10
2018-05-08T10:42:31.925Z,37.10
2018-05-08T10:44:58.143Z,37.10
2018-05-08T10:47:25.099Z,37.20
2018-05-08T10:49:52.064Z,37.30
2018-05-08T10:52:18.994Z,37.30
2018-05-08T10:54:45.213Z,37.30
2018-05-08T10:57:11.393Z,37.30
2018-05-08T10:59:38.337Z,37.30
2018-05-08T11:02:05.276Z,37.30
2018-05-08T11:04:31.462Z,37.30
2018-05-08T11:06:57.689Z,37.20
2018-05-08T11:09:23.885Z,37.10
2018-05-08T11:11:50.097Z,36.90
2018-05-08T11:14:16.264Z,36.70
2018-05-08T11:16:42.613Z,36.50
2018-05-08T11:19:08.807Z,36.30
2018-05-08T11:21:34.992Z,36.20
2018-05-08T11:24:01.187Z,36.00
2018-05-08T11:26:27.428Z,35.90
2018-05-08T11:28:53.535Z,35.70
2018-05-08T11:31:19.730Z,35.60
2018-05-08T11:33:45.903Z,35.40
2018-05-08T11:36:13.565Z,35.20
2018-05-08T11:38:39.793Z,35.20
2018-05-08T11:41:06.162Z,35.20
2018-05-08T11:43:32.385Z,35.10
2018-05-08T11:45:59.357Z,35.00
2018-05-08T11:48:25.616Z,35.00
2018-05-08T11:50:51.776Z,35.00
2018-05-08T11:53:17.927Z,35.00
2018-05-08T11:55:44.099Z,34.90
2018-05-08T11:58:10.299Z,34.80
2018-05-08T12:00:36.523Z,34.70
2018-05-08T12:03:03.498Z,34.50
2018-05-08T12:05:29.741Z,34.40
2018-05-08T12:07:56.673Z,34.50
2018-05-08T12:10:22.842Z,34.40
2018-05-08T12:12:49.762Z,34.60
2018-05-08T12:15:16.721Z,34.60
2018-05-08T12:17:42.909Z,34.50
2018-05-08T12:20:09.080Z,34.50
2018-05-08T12:22:35.280Z,34.40
2018-05-08T12:25:01.506Z,34.40
2018-05-08T12:27:27.683Z,34.30
2018-05-08T12:29:53.845Z,34.20
2018-05-08T12:32:20.054Z,34.10
2018-05-08T12:34:47.005Z,33.80
2018-05-08T12:37:13.193Z,33.70
2018-05-08T12:39:40.914Z,33.50
2018-05-08T12:42:07.419Z,33.50
2018-05-08T12:44:33.617Z,33.50
2018-05-08T12:46:59.823Z,33.40
2018-05-08T12:49:26.020Z,33.30
2018-05-08T12:51:52.227Z,33.30
2018-05-08T12:54:18.426Z,33.30
2018-05-08T12:56:45.352Z,33.10
2018-05-08T12:59:11.564Z,33.00
2018-05-08T13:01:39.264Z,32.90
2018-05-08T13:04:05.507Z,32.90
2018-05-08T13:06:32.458Z,32.70
2018-05-08T13:08:59.365Z,32.70
2018-05-08T13:11:25.714Z,32.60
2018-05-08T13:13:53.014Z,32.60
2018-05-08T13:16:20.023Z,32.50
2018-05-08T13:18:46.221Z,32.40
2018-05-08T13:21:12.444Z,32.40
2018-05-08T13:23:38.629Z,32.40
2018-05-08T13:26:04.871Z,32.40
2018-05-08T13:28:31.073Z,32.30
2018-05-08T13:30:57.293Z,32.30
2018-05-08T13:33:23.462Z,32.20
2018-05-08T13:35:49.647Z,32.00
2018-05-08T13:38:15.969Z,31.90
2018-05-08T13:40:42.885Z,31.60
2018-05-08T13:43:09.092Z,31.50
2018-05-08T13:45:35.516Z,31.50
2018-05-08T13:48:01.843Z,31.40
2018-05-08T13:50:27.956Z,31.30
2018-05-08T13:52:54.189Z,31.20
2018-05-08T13:55:21.937Z,31.00
2018-05-08T13:57:48.138Z,31.00
2018-05-08T14:00:14.304Z,30.90
2018-05-08T14:02:40.493Z,30.80
2018-05-08T14:05:06.697Z,30.70
2018-05-08T14:07:33.621Z,30.60
2018-05-08T14:09:59.953Z,30.50
2018-05-08T14:12:27.054Z,30.40
2018-05-08T14:14:53.239Z,30.40
2018-05-08T14:17:19.419Z,30.30
2018-05-08T14:19:45.611Z,30.30
2018-05-08T14:22:11.823Z,30.20
2018-05-08T14:24:38.014Z,30.20
2018-05-08T14:27:04.914Z,30.10
2018-05-08T14:29:31.090Z,30.10
2018-05-08T14:31:58.036Z,30.10
2018-05-08T14:34:24.953Z,30.10
2018-05-08T14:36:51.918Z,30.00
2018-05-08T14:39:18.691Z,30.00
2018-05-08T14:41:45.596Z,29.90
2018-05-08T14:44:11.790Z,29.90
2018-05-08T14:46:37.965Z,29.80
2018-05-08T14:49:04.141Z,29.80
2018-05-08T14:51:30.373Z,29.60
2018-05-08T14:53:57.278Z,29.40
2018-05-08T14:56:23.440Z,29.40
2018-05-08T14:58:49.698Z,29.40
2018-05-08T15:01:15.818Z,29.30
2018-05-08T15:03:42.772Z,29.10
2018-05-08T15:06:09.680Z,29.10
2018-05-08T15:08:37.372Z,28.90
2018-05-08T15:11:03.594Z,28.90
2018-05-08T15:13:29.856Z,28.90
2018-05-08T15:15:56.806Z,28.90
2018-05-08T15:18:23.710Z,28.90
2018-05-08T15:20:49.909Z,28.80
2018-05-08T15:23:16.132Z,28.90
2018-05-08T15:25:42.362Z,28.90
2018-05-08T15:28:08.579Z,28.90
2018-05-08T15:30:35.729Z,28.80
2018-05-08T15:33:01.929Z,28.80
2018-05-08T15:35:28.152Z,28.80
2018-05-08T15:37:54.402Z,28.80
2018-05-08T15:40:20.759Z,28.70
2018-05-08T15:42:46.941Z,28.70
2018-05-08T15:45:13.859Z,28.60
2018-05-08T15:47:40.792Z,28.60
2018-05-08T15:50:06.962Z,28.50
2018-05-08T15:52:33.877Z,28.50
2018-05-08T15:55:00.924Z,28.50
2018-05-08T15:57:27.127Z,28.50
2018-05-08T15:59:53.309Z,28.50
2018-05-08T16:02:19.503Z,28.50
2018-05-08T16:04:47.248Z,28.50
2018-05-08T16:07:13.429Z,28.40
2018-05-08T16:09:39.621Z,28.40
2018-05-08T16:12:05.773Z,28.30
2018-05-08T16:14:31.960Z,28.30
2018-05-08T16:16:58.888Z,28.20
2018-05-08T16:19:25.103Z,28.20
2018-05-08T16:21:51.289Z,28.20
2018-05-08T16:24:18.465Z,28.20
2018-05-08T16:26:44.668Z,28.20
2018-05-08T16:29:11.613Z,28.10
2018-05-08T16:31:37.931Z,28.10
2018-05-08T16:34:04.140Z,28.10
2018-05-08T16:36:30.347Z,28.10
2018-05-08T16:38:56.512Z,28.10
2018-05-08T16:41:22.690Z,28.00
2018-05-08T16:43:49.638Z,28.00
2018-05-08T16:46:16.548Z,28.00
2018-05-08T16:48:42.789Z,27.90
2018-05-08T16:51:08.956Z,27.90
2018-05-08T16:53:35.096Z,27.80
2018-05-08T16:56:02.020Z,27.80
2018-05-08T16:58:28.267Z,27.70
2018-05-08T17:00:54.435Z,27.70
2018-05-08T17:03:21.104Z,27.70
2018-05-08T17:05:47.302Z,27.70
2018-05-08T17:08:14.285Z,27.60
2018-05-08T17:10:40.561Z,27.50
2018-05-08T17:13:06.809Z,27.50
2018-05-08T17:15:32.984Z,27.50
2018-05-08T17:17:59.203Z,27.40
2018-05-08T17:20:25.621Z,27.40
2018-05-08T17:22:52.765Z,27.30
2018-05-08T17:25:19.098Z,27.20
2018-05-08T17:27:45.267Z,27.20
2018-05-08T17:30:12.049Z,27.10
2018-05-08T17:32:38.371Z,27.10
2018-05-08T17:35:04.533Z,27.00
2018-05-08T17:37:30.882Z,27.00
2018-05-08T17:39:57.109Z,26.90
2018-05-08T17:42:23.321Z,26.80
2018-05-08T17:44:49.685Z,26.80
2018-05-08T17:47:16.790Z,26.60
2018-05-08T17:49:43.415Z,26.60
2018-05-08T17:52:11.241Z,26.60
2018-05-08T17:54:38.273Z,26.40
2018-05-08T17:57:04.842Z,26.40
2018-05-08T17:59:31.105Z,26.30
2018-05-08T18:01:58.040Z,26.20
2018-05-08T18:04:24.372Z,26.20
2018-05-08T18:06:50.558Z,26.10
2018-05-08T18:09:16.772Z,26.10
2018-05-08T18:11:44.000Z,25.90
2018-05-08T18:14:10.957Z,25.90
2018-05-08T18:16:37.216Z,25.80
2018-05-08T18:19:04.261Z,25.70
2018-05-08T18:21:30.497Z,25.70
2018-05-08T18:23:57.793Z,25.60
2018-05-08T18:26:23.968Z,25.50
2018-05-08T18:28:51.276Z,25.50
2018-05-08T18:31:17.642Z,25.50
2018-05-08T18:33:44.377Z,25.40
2018-05-08T18:36:11.464Z,25.30
2018-05-08T18:38:37.634Z,25.20
2018-05-08T18:41:04.057Z,25.20
2018-05-08T18:43:30.282Z,25.10
2018-05-08T18:45:56.651Z,25.00
2018-05-08T18:48:23.316Z,24.90
2018-05-08T18:50:49.649Z,24.90
2018-05-08T18:53:15.825Z,24.80
2018-05-08T18:55:42.065Z,24.70
2018-05-08T18:58:09.003Z,24.60
2018-05-08T19:00:41.574Z,24.60
2018-05-08T19:03:07.772Z,24.60
2018-05-08T19:05:33.954Z,24.40
2018-05-08T19:08:00.996Z,24.40
2018-05-08T19:10:27.262Z,24.40
2018-05-08T19:12:54.056Z,24.30
2018-05-08T19:15:27.041Z,24.30
2018-05-08T19:17:53.281Z,24.20
2018-05-08T19:20:19.512Z,24.10
2018-05-08T19:22:45.751Z,24.10
2018-05-08T19:25:12.107Z,24.00
2018-05-08T19:27:38.385Z,23.90
2018-05-08T19:30:11.784Z,23.80
2018-05-08T19:32:38.351Z,23.80
2018-05-08T19:35:11.625Z,23.70
2018-05-08T19:37:44.284Z,23.60
2018-05-08T19:40:11.232Z,23.60
2018-05-08T19:42:37.767Z,23.50
2018-05-08T19:45:05.652Z,23.50
2018-05-08T19:47:32.896Z,23.40
2018-05-08T19:49:59.942Z,23.30
2018-05-08T19:52:26.232Z,23.30
2018-05-08T19:54:52.451Z,23.30
2018-05-08T19:57:18.749Z,23.20
2018-05-08T19:59:45.025Z,23.20
2018-05-08T20:02:13.137Z,23.00
2018-05-08T20:04:39.448Z,23.00
2018-05-08T20:07:06.832Z,22.90
2018-05-08T20:09:33.113Z,22.80
2018-05-08T20:11:59.341Z,22.80
2018-05-08T20:14:26.285Z,22.70
2018-05-08T20:16:52.469Z,22.60
2018-05-08T20:19:18.701Z,22.60
2018-05-08T20:21:44.962Z,22.50
2018-05-08T20:24:11.178Z,22.50
2018-05-08T20:26:37.409Z,22.40
2018-05-08T20:29:03.708Z,22.30
2018-05-08T20:31:29.949Z,22.30
2018-05-08T20:33:56.196Z,22.20
2018-05-08T20:36:22.459Z,22.10
2018-05-08T20:38:48.724Z,22.10
2018-05-08T20:41:15.971Z,22.00
2018-05-08T20:43:42.268Z,21.90
2018-05-08T20:46:08.473Z,21.90
2018-05-08T20:48:35.482Z,21.80
2018-05-08T20:51:01.916Z,21.80
2018-05-08T20:53:28.996Z,21.70
2018-05-08T20:55:55.227Z,21.60
2018-05-08T20:58:21.473Z,21.70
2018-05-08T21:00:48.462Z,21.50
2018-05-08T21:03:14.759Z,21.50
2018-05-08T21:05:41.773Z,21.40
2018-05-08T21:08:08.094Z,21.30
2018-05-08T21:10:34.348Z,21.30
2018-05-08T21:13:00.649Z,21.30
2018-05-08T21:15:26.900Z,21.30
2018-05-08T21:17:53.134Z,21.20
2018-05-08T21:20:19.355Z,21.10
2018-05-08T21:22:45.648Z,21.00
2018-05-08T21:25:11.845Z,21.00
2018-05-08T21:27:44.475Z,20.90
2018-05-08T21:30:16.893Z,20.90
2018-05-08T21:32:43.103Z,20.80
2018-05-08T21:35:10.105Z,20.70
2018-05-08T21:37:36.402Z,20.70
2018-05-08T21:40:02.666Z,20.70
2018-05-08T21:42:29.246Z,20.60
2018-05-08T21:44:55.593Z,20.60
2018-05-08T21:47:21.825Z,20.60
2018-05-08T21:49:49.336Z,20.50
2018-05-08T21:52:16.481Z,20.50
2018-05-08T21:54:43.846Z,20.40
2018-05-08T21:57:10.352Z,20.40
2018-05-08T21:59:37.413Z,20.40
2018-05-08T22:02:04.641Z,20.30
2018-05-08T22:04:30.883Z,20.20
2018-05-08T22:06:57.065Z,20.20
2018-05-08T22:09:24.460Z,20.10
2018-05-08T22:11:50.734Z,20.10
2018-05-08T22:14:17.784Z,20.00
2018-05-08T22:16:44.058Z,20.00
2018-05-08T22:19:10.899Z,20.00
2018-05-08T22:21:37.148Z,19.90
2018-05-08T22:24:03.418Z,19.80
2018-05-08T22:26:31.244Z,19.70
2018-05-08T22:28:57.452Z,19.70
2018-05-08T22:31:23.724Z,19.70
2018-05-08T22:33:49.932Z,19.60
2018-05-08T22:36:16.175Z,19.60
2018-05-08T22:38:42.386Z,19.60
2018-05-08T22:41:09.358Z,19.40
2018-05-08T22:43:35.583Z,19.40
2018-05-08T22:46:01.981Z,19.40
2018-05-08T22:48:28.185Z,19.40
2018-05-08T22:50:54.370Z,19.30
2018-05-08T22:53:21.338Z,19.20
2018-05-08T22:55:47.566Z,19.20
2018-05-08T22:58:14.817Z,19.20
2018-05-08T23:00:41.798Z,19.10
2018-05-08T23:03:07.971Z,19.10
2018-05-08T23:05:34.159Z,19.10
2018-05-08T23:08:00.375Z,19.10
2018-05-08T23:10:27.349Z,19.00
2018-05-08T23:12:53.557Z,18.90
2018-05-08T23:15:20.495Z,18.90
2018-05-08T23:17:46.837Z,18.80
2018-05-08T23:20:13.814Z,18.80
2018-05-08T23:22:40.029Z,18.80
2018-05-08T23:25:06.980Z,18.70
2018-05-08T23:27:33.895Z,18.70
2018-05-08T23:30:00.103Z,18.70
2018-05-08T23:32:26.301Z,18.70
2018-05-08T23:34:53.228Z,18.60
2018-05-08T23:37:20.232Z,18.60
2018-05-08T23:39:46.442Z,18.50
2018-05-08T23:42:13.420Z,18.50
2018-05-08T23:44:39.597Z,18.50
2018-05-08T23:47:05.828Z,18.50
2018-05-08T23:49:32.067Z,18.40
2018-05-08T23:51:58.247Z,18.40
2018-05-08T23:54:24.425Z,18.40
2018-05-08T23:56:51.523Z,18.30
2018-05-08T23:59:18.445Z,18.30
